Time;durP1;ratioP1;P1;durP2;ratioP2;P2;SDS_P1;SDS_P2;PMS_P1;PMS_P2;Temp;Humidity;BMP_temperature;BMP_pressure;BME280_temperature;BME280_humidity;BME280_pressure;Samples;Min_cycle;Max_cycle;Signal;HPM_P1;HPM_P2
2022/06/09 00:01:55;;;;;;;;;;;21.30;64.90;;;;;;4879899;29;19912;-61
2022/06/09 00:04:21;;;;;;;;;;;21.20;65.30;;;;;;4879789;29;20288;-61
2022/06/09 00:06:46;;;;;;;;;;;21.20;65.80;;;;;;4879842;29;19912;-61
2022/06/09 00:09:13;;;;;;;;;;;21.30;65.20;;;;;;4879699;29;19920;-64
2022/06/09 00:11:41;;;;;;;;;;;21.30;63.70;;;;;;4879928;29;20249;-62
2022/06/09 00:14:07;;;;;;;;;;;21.30;64.90;;;;;;4879751;29;19912;-61
2022/06/09 00:16:33;;;;;;;;;;;21.30;65.80;;;;;;4879800;29;19960;-62
2022/06/09 00:18:59;;;;;;;;;;;21.30;65.50;;;;;;4879644;29;19912;-61
2022/06/09 00:21:24;;;;;;;;;;;21.20;66.00;;;;;;4879453;29;19912;-60
2022/06/09 00:23:50;;;;;;;;;;;21.30;66.90;;;;;;4879515;29;19912;-63
2022/06/09 00:26:16;;;;;;;;;;;21.30;66.40;;;;;;4879734;29;19912;-61
2022/06/09 00:28:42;;;;;;;;;;;21.20;66.90;;;;;;4879427;29;20080;-62
2022/06/09 00:31:07;;;;;;;;;;;21.20;67.30;;;;;;4879407;29;19968;-62
2022/06/09 00:33:33;;;;;;;;;;;21.30;66.30;;;;;;4879868;29;19919;-62
2022/06/09 00:35:58;;;;;;;;;;;21.30;66.10;;;;;;4879512;29;20374;-61
2022/06/09 00:38:24;;;;;;;;;;;21.40;66.40;;;;;;4879472;29;20344;-66
2022/06/09 00:40:50;;;;;;;;;;;21.30;66.00;;;;;;4879284;29;19919;-61
2022/06/09 00:43:16;;;;;;;;;;;21.30;66.30;;;;;;4879726;29;19958;-66
2022/06/09 00:45:51;;;;;;;;;;;21.40;65.60;;;;;;4879682;29;20250;-61
2022/06/09 00:48:21;;;;;;;;;;;21.50;64.40;;;;;;4879377;29;19919;-62
2022/06/09 00:50:49;;;;;;;;;;;21.70;63.70;;;;;;4879215;29;19927;-62
2022/06/09 00:53:18;;;;;;;;;;;21.60;63.60;;;;;;4879231;29;19940;-68
2022/06/09 00:55:44;;;;;;;;;;;21.70;63.50;;;;;;4879504;29;20286;-60
2022/06/09 00:58:11;;;;;;;;;;;21.70;64.10;;;;;;4879390;29;19912;-62
2022/06/09 01:00:45;;;;;;;;;;;21.60;64.80;;;;;;4879364;29;19916;-63
2022/06/09 01:03:11;;;;;;;;;;;21.60;65.70;;;;;;4879336;29;19945;-64
2022/06/09 01:05:38;;;;;;;;;;;21.60;66.50;;;;;;4882586;29;19912;-59
2022/06/09 01:08:04;;;;;;;;;;;21.70;66.90;;;;;;4882371;29;20002;-61
2022/06/09 01:10:29;;;;;;;;;;;21.70;67.30;;;;;;4882825;29;20009;-60
2022/06/09 01:12:56;;;;;;;;;;;21.50;67.70;;;;;;4882651;29;19912;-62
2022/06/09 01:15:22;;;;;;;;;;;21.50;67.90;;;;;;4882511;29;20296;-60
2022/06/09 01:17:50;;;;;;;;;;;21.40;68.60;;;;;;4882801;29;19916;-64
2022/06/09 01:20:23;;;;;;;;;;;21.40;69.00;;;;;;4882284;29;19924;-62
2022/06/09 01:22:54;;;;;;;;;;;21.40;68.90;;;;;;4882598;29;19911;-61
2022/06/09 01:25:32;;;;;;;;;;;21.40;68.90;;;;;;4882243;29;19919;-61
2022/06/09 01:28:06;;;;;;;;;;;21.30;68.90;;;;;;4882206;29;19919;-61
2022/06/09 01:30:37;;;;;;;;;;;21.30;69.80;;;;;;4882253;29;20372;-62
2022/06/09 01:33:23;;;;;;;;;;;21.30;70.20;;;;;;4881967;29;20364;-62
2022/06/09 01:36:09;;;;;;;;;;;21.30;70.00;;;;;;4872033;29;19912;-62
2022/06/09 01:38:48;;;;;;;;;;;21.30;70.00;;;;;;4881385;29;19912;-68
2022/06/09 01:41:14;;;;;;;;;;;21.30;70.00;;;;;;4882072;29;19998;-61
2022/06/09 01:43:40;;;;;;;;;;;21.20;70.60;;;;;;4865157;29;20364;-61
2022/06/09 01:46:14;;;;;;;;;;;21.20;70.50;;;;;;4882123;29;19919;-66
2022/06/09 01:48:40;;;;;;;;;;;21.30;70.40;;;;;;4865080;29;19920;-61
2022/06/09 01:51:11;;;;;;;;;;;21.50;69.60;;;;;;4881959;29;20303;-64
2022/06/09 01:53:44;;;;;;;;;;;21.50;69.40;;;;;;4881999;29;20260;-61
2022/06/09 01:56:16;;;;;;;;;;;21.50;69.70;;;;;;4881896;29;19943;-63
2022/06/09 01:58:44;;;;;;;;;;;21.50;69.90;;;;;;4881610;29;19962;-60
2022/06/09 02:01:11;;;;;;;;;;;21.60;69.70;;;;;;4881610;29;19923;-61
2022/06/09 02:03:39;;;;;;;;;;;21.50;70.30;;;;;;4881699;29;19912;-63
2022/06/09 02:06:06;;;;;;;;;;;21.50;70.90;;;;;;4881742;29;19951;-62
2022/06/09 02:08:32;;;;;;;;;;;21.40;71.20;;;;;;4881449;29;19924;-61
2022/06/09 02:11:04;;;;;;;;;;;21.30;71.00;;;;;;4881418;29;19969;-61
2022/06/09 02:13:32;;;;;;;;;;;21.30;71.10;;;;;;4881362;29;20003;-61
2022/06/09 02:16:03;;;;;;;;;;;21.30;70.80;;;;;;4880649;29;19975;-61
2022/06/09 02:18:30;;;;;;;;;;;21.40;70.00;;;;;;4881233;29;19915;-61
2022/06/09 02:20:55;;;;;;;;;;;21.50;69.70;;;;;;4881149;29;20288;-66
2022/06/09 02:23:21;;;;;;;;;;;21.50;69.80;;;;;;4881278;29;19915;-65
2022/06/09 02:25:46;;;;;;;;;;;21.50;66.70;;;;;;4881657;29;19982;-61
2022/06/09 02:28:12;;;;;;;;;;;21.60;66.30;;;;;;4882982;29;19976;-60
2022/06/09 02:30:38;;;;;;;;;;;21.70;66.20;;;;;;4883013;29;19912;-61
2022/06/09 02:33:05;;;;;;;;;;;21.70;66.00;;;;;;4882197;29;19968;-61
2022/06/09 02:35:31;;;;;;;;;;;21.90;64.80;;;;;;4881592;29;19919;-63
2022/06/09 02:37:56;;;;;;;;;;;21.90;63.70;;;;;;4881035;29;19912;-63
2022/06/09 02:40:22;;;;;;;;;;;21.80;64.40;;;;;;4881030;29;20260;-62
2022/06/09 02:42:47;;;;;;;;;;;21.90;65.10;;;;;;4881280;29;19916;-60
2022/06/09 02:45:14;;;;;;;;;;;21.60;68.50;;;;;;4881367;29;19912;-60
2022/06/09 02:47:40;;;;;;;;;;;21.50;71.20;;;;;;4881053;29;20349;-61
2022/06/09 02:50:06;;;;;;;;;;;21.20;74.10;;;;;;4880867;29;19962;-64
2022/06/09 02:52:31;;;;;;;;;;;21.10;75.10;;;;;;4881190;29;19916;-64
2022/06/09 02:54:57;;;;;;;;;;;21.00;75.80;;;;;;4881408;29;19919;-66
2022/06/09 02:57:23;;;;;;;;;;;21.00;76.50;;;;;;4881066;29;19975;-64
2022/06/09 02:59:50;;;;;;;;;;;20.90;77.30;;;;;;4880624;29;20380;-60
2022/06/09 03:02:16;;;;;;;;;;;20.70;78.20;;;;;;4863945;29;19912;-66
2022/06/09 03:04:41;;;;;;;;;;;20.60;79.40;;;;;;4880474;29;20352;-64
2022/06/09 03:07:07;;;;;;;;;;;20.60;78.20;;;;;;4880536;29;19912;-63
2022/06/09 03:09:32;;;;;;;;;;;20.70;77.30;;;;;;4880342;29;19919;-62
2022/06/09 03:11:58;;;;;;;;;;;20.70;78.30;;;;;;4880473;29;20261;-61
2022/06/09 03:14:23;;;;;;;;;;;20.00;80.90;;;;;;4880596;29;20007;-60
2022/06/09 03:16:50;;;;;;;;;;;19.70;83.50;;;;;;4880355;29;19988;-60
2022/06/09 03:19:16;;;;;;;;;;;19.90;83.00;;;;;;4880428;29;19912;-61
2022/06/09 03:21:42;;;;;;;;;;;19.90;81.70;;;;;;4880449;29;19915;-61
2022/06/09 03:24:07;;;;;;;;;;;19.50;83.40;;;;;;4880375;29;20275;-61
2022/06/09 03:26:33;;;;;;;;;;;19.60;84.30;;;;;;4880311;29;20440;-61
2022/06/09 03:28:59;;;;;;;;;;;19.70;83.30;;;;;;4880136;29;19989;-61
2022/06/09 03:31:24;;;;;;;;;;;19.80;82.20;;;;;;4880339;29;20368;-60
2022/06/09 03:33:50;;;;;;;;;;;19.60;82.90;;;;;;4880076;29;20014;-62
2022/06/09 03:36:16;;;;;;;;;;;19.70;82.70;;;;;;4880291;29;19968;-62
2022/06/09 03:38:42;;;;;;;;;;;19.60;82.70;;;;;;4880201;29;20452;-67
2022/06/09 03:41:07;;;;;;;;;;;19.30;82.90;;;;;;4880263;29;19967;-61
2022/06/09 03:43:34;;;;;;;;;;;19.50;83.30;;;;;;4880109;29;19912;-61
2022/06/09 03:46:00;;;;;;;;;;;19.60;83.60;;;;;;4880142;29;19912;-61
2022/06/09 03:48:27;;;;;;;;;;;19.10;83.10;;;;;;4879852;29;20019;-67
2022/06/09 03:50:52;;;;;;;;;;;18.90;85.50;;;;;;4879700;29;19961;-62
2022/06/09 03:53:18;;;;;;;;;;;18.90;85.40;;;;;;4879912;29;19954;-64
2022/06/09 03:55:43;;;;;;;;;;;19.10;86.20;;;;;;4880148;29;19912;-62
2022/06/09 03:58:09;;;;;;;;;;;19.10;85.60;;;;;;4879980;29;19916;-61
2022/06/09 04:00:34;;;;;;;;;;;19.20;86.20;;;;;;4880076;29;19916;-61
2022/06/09 04:03:00;;;;;;;;;;;19.30;86.00;;;;;;4879857;29;19919;-61
2022/06/09 04:05:27;;;;;;;;;;;19.40;86.10;;;;;;4879832;29;19921;-67
2022/06/09 04:07:53;;;;;;;;;;;19.40;85.80;;;;;;4879977;29;19912;-60
2022/06/09 04:10:20;;;;;;;;;;;19.50;85.40;;;;;;4863055;29;20395;-61
2022/06/09 04:12:46;;;;;;;;;;;19.90;83.40;;;;;;4880148;29;19919;-68
2022/06/09 04:15:12;;;;;;;;;;;19.70;83.60;;;;;;4879774;29;19912;-63
2022/06/09 04:17:38;;;;;;;;;;;19.20;86.30;;;;;;4879498;29;20351;-60
2022/06/09 04:20:04;;;;;;;;;;;18.80;89.40;;;;;;4879725;29;19944;-60
2022/06/09 04:22:29;;;;;;;;;;;18.90;89.80;;;;;;4879797;29;19919;-67
2022/06/09 04:24:55;;;;;;;;;;;19.00;88.60;;;;;;4879705;29;20238;-60
2022/06/09 04:27:21;;;;;;;;;;;19.00;87.10;;;;;;4879965;29;19912;-62
2022/06/09 04:29:47;;;;;;;;;;;19.00;88.20;;;;;;4879676;29;19919;-61
2022/06/09 04:32:12;;;;;;;;;;;19.20;88.30;;;;;;4879735;29;19918;-61
2022/06/09 04:34:38;;;;;;;;;;;19.30;88.00;;;;;;4879784;29;19912;-61
2022/06/09 04:37:04;;;;;;;;;;;19.40;86.60;;;;;;4879710;29;19912;-63
2022/06/09 04:39:29;;;;;;;;;;;19.50;86.60;;;;;;4881419;29;20344;-62
2022/06/09 04:41:55;;;;;;;;;;;19.20;85.20;;;;;;4883493;29;19919;-62
2022/06/09 04:44:20;;;;;;;;;;;18.90;86.40;;;;;;4883157;29;20399;-65
2022/06/09 04:46:46;;;;;;;;;;;18.90;87.20;;;;;;4883379;29;19912;-63
2022/06/09 04:49:12;;;;;;;;;;;19.20;87.20;;;;;;4883113;29;19927;-62
2022/06/09 04:51:37;;;;;;;;;;;19.30;87.00;;;;;;4883460;29;20018;-62
2022/06/09 04:54:03;;;;;;;;;;;19.40;87.30;;;;;;4883106;29;19911;-60
2022/06/09 04:56:28;;;;;;;;;;;19.30;86.90;;;;;;4883058;29;19912;-60
2022/06/09 04:58:54;;;;;;;;;;;19.40;86.40;;;;;;4882971;29;19919;-61
2022/06/09 05:01:24;;;;;;;;;;;19.20;84.40;;;;;;4883026;29;20007;-60
2022/06/09 05:03:50;;;;;;;;;;;19.10;84.40;;;;;;4883151;29;19912;-61
2022/06/09 05:06:20;;;;;;;;;;;18.70;83.80;;;;;;4882974;29;20291;-66
2022/06/09 05:08:46;;;;;;;;;;;18.40;85.70;;;;;;4882764;29;19920;-65
2022/06/09 05:11:12;;;;;;;;;;;18.30;85.70;;;;;;4883273;29;20292;-61
2022/06/09 05:13:38;;;;;;;;;;;18.30;86.60;;;;;;4882820;29;19912;-61
2022/06/09 05:16:03;;;;;;;;;;;18.20;87.00;;;;;;4882781;29;19942;-62
2022/06/09 05:18:30;;;;;;;;;;;18.20;87.40;;;;;;4882693;29;20010;-62
2022/06/09 05:20:57;;;;;;;;;;;18.10;87.40;;;;;;4882572;29;20387;-61
2022/06/09 05:23:23;;;;;;;;;;;17.90;88.80;;;;;;4882883;29;19919;-60
2022/06/09 05:25:49;;;;;;;;;;;18.00;88.00;;;;;;4883246;29;19912;-61
2022/06/09 05:28:16;;;;;;;;;;;17.90;88.10;;;;;;4882480;29;19927;-61
2022/06/09 05:30:41;;;;;;;;;;;17.90;88.70;;;;;;4882671;29;19926;-61
2022/06/09 05:33:07;;;;;;;;;;;17.90;88.30;;;;;;4882677;29;19911;-60
2022/06/09 05:35:33;;;;;;;;;;;17.90;88.30;;;;;;4882876;29;19912;-64
2022/06/09 05:46:15;;;;;;;;;;;18.00;86.30;;;;;;4882402;29;20268;-62
2022/06/09 05:48:44;;;;;;;;;;;17.80;86.00;;;;;;4882125;29;20015;-66
2022/06/09 05:51:10;;;;;;;;;;;17.80;87.10;;;;;;4880942;29;19978;-65
2022/06/09 05:53:36;;;;;;;;;;;17.90;87.10;;;;;;4882023;29;19918;-62
2022/06/09 05:56:02;;;;;;;;;;;17.90;86.10;;;;;;4882037;29;19916;-66
2022/06/09 05:58:28;;;;;;;;;;;18.00;85.00;;;;;;4882078;29;19918;-60
2022/06/09 06:00:53;;;;;;;;;;;18.10;85.40;;;;;;4881988;29;20335;-67
2022/06/09 06:03:19;;;;;;;;;;;18.00;84.60;;;;;;4881859;29;19923;-67
2022/06/09 06:08:29;;;;;;;;;;;17.80;85.70;;;;;;4882068;29;20289;-76
2022/06/09 06:10:56;;;;;;;;;;;17.90;86.00;;;;;;4882063;29;19912;-69
2022/06/09 06:13:21;;;;;;;;;;;17.90;85.70;;;;;;4881748;29;19916;-61
2022/06/09 06:15:47;;;;;;;;;;;18.10;85.20;;;;;;4881673;29;20387;-71
2022/06/09 06:18:12;;;;;;;;;;;18.30;83.90;;;;;;4881572;29;19912;-64
2022/06/09 06:20:38;;;;;;;;;;;18.20;82.90;;;;;;4881623;29;20006;-63
2022/06/09 06:23:03;;;;;;;;;;;18.50;82.40;;;;;;4881564;29;19912;-63
2022/06/09 06:25:29;;;;;;;;;;;18.70;82.40;;;;;;4865043;29;19920;-67
2022/06/09 06:27:54;;;;;;;;;;;19.20;80.10;;;;;;4881467;29;19912;-62
2022/06/09 06:30:20;;;;;;;;;;;19.40;78.90;;;;;;4881440;29;20011;-64
2022/06/09 06:32:46;;;;;;;;;;;19.30;77.90;;;;;;4881517;29;19912;-69
2022/06/09 06:35:12;;;;;;;;;;;19.60;77.20;;;;;;4881712;29;19919;-66
2022/06/09 06:37:38;;;;;;;;;;;19.60;76.60;;;;;;4881357;29;19969;-65
2022/06/09 06:40:04;;;;;;;;;;;19.60;76.60;;;;;;4882710;29;19916;-63
2022/06/09 06:42:30;;;;;;;;;;;19.70;77.90;;;;;;4887385;29;20432;-72
2022/06/09 06:44:55;;;;;;;;;;;19.60;76.10;;;;;;4887266;29;19963;-60
2022/06/09 06:47:21;;;;;;;;;;;19.90;76.70;;;;;;4886591;29;19964;-63
2022/06/09 06:49:46;;;;;;;;;;;19.90;76.50;;;;;;4881410;29;20018;-60
2022/06/09 06:52:12;;;;;;;;;;;20.30;76.30;;;;;;4880398;29;19968;-64
2022/06/09 06:54:37;;;;;;;;;;;20.20;74.50;;;;;;4880404;29;19967;-59
2022/06/09 06:57:05;;;;;;;;;;;20.20;75.40;;;;;;4880516;29;19911;-63
2022/06/09 06:59:32;;;;;;;;;;;20.40;75.50;;;;;;4863997;29;19912;-63
2022/06/09 07:01:58;;;;;;;;;;;20.20;74.60;;;;;;4880515;29;19919;-58
2022/06/09 07:04:23;;;;;;;;;;;20.30;75.30;;;;;;4863992;29;19976;-60
2022/06/09 07:06:49;;;;;;;;;;;20.30;75.70;;;;;;4880770;29;19919;-61
2022/06/09 07:09:14;;;;;;;;;;;20.60;75.10;;;;;;4880596;29;19920;-58
2022/06/09 07:11:40;;;;;;;;;;;20.80;74.90;;;;;;4880711;29;19912;-58
2022/06/09 07:14:06;;;;;;;;;;;21.00;72.30;;;;;;4863978;29;19912;-58
2022/06/09 07:16:32;;;;;;;;;;;20.80;72.90;;;;;;4880604;29;20284;-62
2022/06/09 07:18:57;;;;;;;;;;;20.90;73.90;;;;;;4880283;29;19930;-58
2022/06/09 07:21:23;;;;;;;;;;;21.00;75.30;;;;;;4880624;29;19911;-61
2022/06/09 07:23:48;;;;;;;;;;;21.10;72.90;;;;;;4880733;29;19918;-61
2022/06/09 07:26:14;;;;;;;;;;;21.30;72.10;;;;;;4863582;29;19912;-63
2022/06/09 07:28:40;;;;;;;;;;;21.20;71.00;;;;;;4879740;29;19930;-64
2022/06/09 07:31:06;;;;;;;;;;;21.00;71.20;;;;;;4888878;29;20014;-59
2022/06/09 07:33:33;;;;;;;;;;;21.10;71.60;;;;;;4881526;29;20018;-61
2022/06/09 07:35:59;;;;;;;;;;;21.20;72.00;;;;;;4889129;29;20352;-57
2022/06/09 07:38:25;;;;;;;;;;;21.30;73.20;;;;;;4889910;29;19959;-58
2022/06/09 07:40:51;;;;;;;;;;;21.30;72.50;;;;;;4879678;29;19912;-59
2022/06/09 07:43:19;;;;;;;;;;;21.30;72.80;;;;;;4889926;29;19912;-59
2022/06/09 07:45:45;;;;;;;;;;;21.20;73.20;;;;;;4885743;29;20294;-63
2022/06/09 07:48:11;;;;;;;;;;;21.20;73.90;;;;;;4888681;29;19926;-66
2022/06/09 07:50:37;;;;;;;;;;;21.20;74.70;;;;;;4889723;29;19924;-74
2022/06/09 07:53:02;;;;;;;;;;;21.30;74.50;;;;;;4888001;29;20271;-63
2022/06/09 07:55:28;;;;;;;;;;;21.40;74.10;;;;;;4889193;29;19916;-66
2022/06/09 07:57:57;;;;;;;;;;;21.50;74.50;;;;;;4889358;29;20383;-65
2022/06/09 08:00:23;;;;;;;;;;;21.60;73.10;;;;;;4889944;29;19923;-70
2022/06/09 08:02:49;;;;;;;;;;;21.50;73.60;;;;;;4880273;29;20284;-64
2022/06/09 08:05:16;;;;;;;;;;;21.60;72.80;;;;;;4884296;29;20368;-64
2022/06/09 08:07:41;;;;;;;;;;;21.60;73.50;;;;;;4893880;29;19979;-69
2022/06/09 08:10:07;;;;;;;;;;;21.50;73.10;;;;;;4881737;29;19924;-61
2022/06/09 08:12:33;;;;;;;;;;;21.30;73.60;;;;;;4898293;29;19919;-66
2022/06/09 08:14:59;;;;;;;;;;;20.70;75.90;;;;;;4883808;29;19967;-58
2022/06/09 08:17:25;;;;;;;;;;;20.90;76.30;;;;;;4879898;29;20388;-62
2022/06/09 08:19:51;;;;;;;;;;;21.00;75.50;;;;;;4879531;29;19912;-60
2022/06/09 08:22:17;;;;;;;;;;;21.20;76.60;;;;;;4879790;29;20388;-59
2022/06/09 08:24:43;;;;;;;;;;;21.20;75.00;;;;;;4889594;29;20365;-59
2022/06/09 08:27:08;;;;;;;;;;;21.30;74.80;;;;;;4896451;29;19918;-60
2022/06/09 08:29:34;;;;;;;;;;;21.60;74.30;;;;;;4879277;29;19992;-59
2022/06/09 08:32:00;;;;;;;;;;;21.50;75.20;;;;;;4861321;29;19955;-68
2022/06/09 08:34:26;;;;;;;;;;;21.30;75.50;;;;;;4887711;29;19912;-64
2022/06/09 08:36:52;;;;;;;;;;;21.00;76.30;;;;;;4888243;29;19983;-62
2022/06/09 08:39:17;;;;;;;;;;;21.00;75.90;;;;;;4878866;29;19912;-62
2022/06/09 08:41:48;;;;;;;;;;;21.00;77.10;;;;;;4886788;29;19912;-62
2022/06/09 08:44:24;;;;;;;;;;;21.10;77.10;;;;;;4888947;29;20029;-66
2022/06/09 08:46:50;;;;;;;;;;;21.30;76.70;;;;;;4889105;29;19967;-63
2022/06/09 08:49:34;;;;;;;;;;;21.20;76.40;;;;;;4884519;29;20372;-61
2022/06/09 08:52:27;;;;;;;;;;;21.20;75.60;;;;;;4882591;29;20295;-66
2022/06/09 08:54:54;;;;;;;;;;;21.30;75.80;;;;;;4889302;29;19987;-63
2022/06/09 08:57:27;;;;;;;;;;;21.10;76.20;;;;;;4887313;29;19926;-64
2022/06/09 08:59:54;;;;;;;;;;;21.10;76.50;;;;;;4888001;29;19912;-63
2022/06/09 09:02:23;;;;;;;;;;;21.30;76.40;;;;;;4878827;29;19926;-65
2022/06/09 09:04:53;;;;;;;;;;;21.30;76.30;;;;;;4878843;29;20373;-59
2022/06/09 09:07:27;;;;;;;;;;;21.30;77.10;;;;;;4878778;29;19963;-63
2022/06/09 09:10:00;;;;;;;;;;;21.20;75.80;;;;;;4891872;29;19919;-62
2022/06/09 09:12:32;;;;;;;;;;;21.30;76.10;;;;;;4897933;29;19912;-59
2022/06/09 09:15:04;;;;;;;;;;;21.20;75.80;;;;;;4897814;29;19911;-65
2022/06/09 09:17:34;;;;;;;;;;;21.20;76.30;;;;;;4898118;29;19922;-61
2022/06/09 09:20:05;;;;;;;;;;;21.20;75.70;;;;;;4898005;29;20388;-64
2022/06/09 09:22:37;;;;;;;;;;;21.30;76.10;;;;;;4897764;29;19992;-68
2022/06/09 09:25:18;;;;;;;;;;;21.20;76.10;;;;;;4898571;29;19919;-64
2022/06/09 09:27:47;;;;;;;;;;;21.20;76.80;;;;;;4901263;29;20062;-66
2022/06/09 09:30:24;;;;;;;;;;;21.10;76.70;;;;;;4900968;29;19982;-64
2022/06/09 09:32:51;;;;;;;;;;;20.90;78.30;;;;;;4901171;29;19918;-66
2022/06/09 09:35:20;;;;;;;;;;;20.90;77.40;;;;;;4901219;29;19912;-61
2022/06/09 09:37:47;;;;;;;;;;;21.10;76.00;;;;;;4900972;29;20007;-60
2022/06/09 09:40:16;;;;;;;;;;;21.00;75.30;;;;;;4900951;29;19998;-61
2022/06/09 09:42:43;;;;;;;;;;;21.00;75.70;;;;;;4900920;29;19919;-58
2022/06/09 09:45:11;;;;;;;;;;;21.00;75.90;;;;;;4901188;29;19919;-60
2022/06/09 09:47:45;;;;;;;;;;;21.00;75.70;;;;;;4901010;29;19911;-62
2022/06/09 09:50:23;;;;;;;;;;;21.00;75.50;;;;;;4900471;29;19923;-61
2022/06/09 09:52:54;;;;;;;;;;;21.10;76.10;;;;;;4900982;29;19960;-59
2022/06/09 09:55:25;;;;;;;;;;;21.20;76.40;;;;;;4901003;29;19939;-60
2022/06/09 09:58:09;;;;;;;;;;;21.20;76.50;;;;;;4900758;29;20361;-60
2022/06/09 10:00:35;;;;;;;;;;;21.20;76.90;;;;;;4900596;29;19943;-61
2022/06/09 10:08:42;;;;;;;;;;;21.40;76.40;;;;;;4900268;29;19927;-62
2022/06/09 10:14:24;;;;;;;;;;;21.30;75.60;;;;;;4900461;29;19982;-58
2022/06/09 10:16:51;;;;;;;;;;;21.20;76.70;;;;;;4900540;29;19994;-64
2022/06/09 10:19:19;;;;;;;;;;;21.20;77.00;;;;;;4900202;29;19936;-59
2022/06/09 10:21:50;;;;;;;;;;;21.30;77.40;;;;;;4900328;29;19922;-60
2022/06/09 10:24:18;;;;;;;;;;;21.40;76.40;;;;;;4900428;29;19915;-60
2022/06/09 10:26:45;;;;;;;;;;;21.50;75.80;;;;;;4900317;29;19919;-59
2022/06/09 10:29:26;;;;;;;;;;;21.50;77.30;;;;;;4900185;29;19926;-61
2022/06/09 10:31:55;;;;;;;;;;;21.50;78.30;;;;;;4900307;29;19916;-61
2022/06/09 10:34:39;;;;;;;;;;;21.60;78.30;;;;;;4900158;29;20419;-59
2022/06/09 10:37:25;;;;;;;;;;;21.60;77.00;;;;;;4899285;29;19912;-65
2022/06/09 10:39:59;;;;;;;;;;;21.60;76.30;;;;;;4900071;29;19918;-66
2022/06/09 10:42:28;;;;;;;;;;;21.60;73.10;;;;;;4900098;29;20394;-66
2022/06/09 10:45:05;;;;;;;;;;;21.80;71.00;;;;;;4899734;29;19912;-60
2022/06/09 10:56:26;;;;;;;;;;;22.00;69.20;;;;;;4898780;29;20458;-58
2022/06/09 10:58:56;;;;;;;;;;;22.00;69.30;;;;;;4899737;29;19935;-57
2022/06/09 11:01:25;;;;;;;;;;;22.10;69.30;;;;;;4899801;29;19916;-58
2022/06/09 11:03:51;;;;;;;;;;;22.20;68.90;;;;;;4899356;29;19918;-61
2022/06/09 11:06:23;;;;;;;;;;;22.30;67.80;;;;;;4899582;29;19912;-58
2022/06/09 11:08:51;;;;;;;;;;;22.20;68.80;;;;;;4899277;29;20374;-57
2022/06/09 11:11:25;;;;;;;;;;;22.30;68.50;;;;;;4899779;29;19946;-62
2022/06/09 11:14:03;;;;;;;;;;;22.50;68.60;;;;;;4900741;29;19915;-59
2022/06/09 11:16:31;;;;;;;;;;;22.60;69.80;;;;;;4900864;29;20010;-58
2022/06/09 11:19:15;;;;;;;;;;;22.60;71.00;;;;;;4900900;29;19968;-57
2022/06/09 11:21:48;;;;;;;;;;;22.70;71.70;;;;;;4898967;29;19911;-60
2022/06/09 11:24:32;;;;;;;;;;;22.80;71.80;;;;;;4882225;29;19918;-57
2022/06/09 11:27:16;;;;;;;;;;;22.80;72.10;;;;;;4899112;29;19951;-58
2022/06/09 11:30:00;;;;;;;;;;;22.70;71.60;;;;;;4898894;29;20372;-58
2022/06/09 11:32:34;;;;;;;;;;;22.70;73.10;;;;;;4899036;29;19922;-58
2022/06/09 11:35:21;;;;;;;;;;;22.80;72.60;;;;;;4899034;29;19919;-60
2022/06/09 11:38:07;;;;;;;;;;;22.40;73.60;;;;;;4896733;29;19915;-60
2022/06/09 11:40:53;;;;;;;;;;;22.40;75.80;;;;;;4859073;29;19918;-66
2022/06/09 11:43:31;;;;;;;;;;;22.40;76.60;;;;;;4876082;29;20040;-60
2022/06/09 11:46:12;;;;;;;;;;;22.40;76.20;;;;;;4878744;29;19979;-67
2022/06/09 11:48:46;;;;;;;;;;;22.10;76.00;;;;;;4878263;29;20048;-70
2022/06/09 11:51:15;;;;;;;;;;;22.10;77.80;;;;;;4879122;29;20392;-71
2022/06/09 11:53:54;;;;;;;;;;;22.00;78.10;;;;;;4879252;29;19924;-74
2022/06/09 11:56:40;;;;;;;;;;;22.00;78.80;;;;;;4879494;29;19912;-62
2022/06/09 11:59:11;;;;;;;;;;;22.20;78.40;;;;;;4867509;29;19912;-68
2022/06/09 12:01:39;;;;;;;;;;;22.40;77.40;;;;;;4879474;29;19935;-66
2022/06/09 12:04:23;;;;;;;;;;;22.50;77.30;;;;;;4866580;29;20339;-61
2022/06/09 12:06:55;;;;;;;;;;;22.40;78.20;;;;;;4879493;29;19911;-67
2022/06/09 12:09:39;;;;;;;;;;;22.10;78.80;;;;;;4879215;29;19920;-65
2022/06/09 12:12:25;;;;;;;;;;;22.10;79.30;;;;;;4879274;29;19927;-65
2022/06/09 12:15:07;;;;;;;;;;;21.80;79.70;;;;;;4879096;29;19915;-61
2022/06/09 12:17:33;;;;;;;;;;;21.90;79.50;;;;;;4879020;29;20374;-61
2022/06/09 12:20:03;;;;;;;;;;;21.80;79.80;;;;;;4879287;29;19912;-62
2022/06/09 12:22:40;;;;;;;;;;;21.70;80.00;;;;;;4879076;29;19912;-58
2022/06/09 12:25:11;;;;;;;;;;;21.60;80.40;;;;;;4878951;29;19927;-62
2022/06/09 12:27:37;;;;;;;;;;;21.50;80.50;;;;;;4879198;29;19916;-69
2022/06/09 12:30:02;;;;;;;;;;;21.50;80.90;;;;;;4879008;29;19976;-69
2022/06/09 12:32:39;;;;;;;;;;;21.50;80.90;;;;;;4878965;29;20008;-61
2022/06/09 12:35:16;;;;;;;;;;;21.50;80.90;;;;;;4866744;29;20386;-56
2022/06/09 12:37:49;;;;;;;;;;;21.40;82.30;;;;;;4879126;29;19919;-69
2022/06/09 12:40:17;;;;;;;;;;;21.40;81.80;;;;;;4878899;29;19994;-66
2022/06/09 12:42:47;;;;;;;;;;;21.40;80.00;;;;;;4878958;29;19912;-74
2022/06/09 12:45:24;;;;;;;;;;;21.50;80.90;;;;;;4879356;29;19968;-70
2022/06/09 12:47:52;;;;;;;;;;;21.50;79.70;;;;;;4879080;29;20217;-62
2022/06/09 12:50:24;;;;;;;;;;;21.30;79.80;;;;;;4867220;29;20015;-59
2022/06/09 12:52:52;;;;;;;;;;;21.20;80.70;;;;;;4862496;29;20283;-59
2022/06/09 12:55:20;;;;;;;;;;;21.40;80.80;;;;;;4878929;29;20003;-61
2022/06/09 12:57:47;;;;;;;;;;;21.50;81.20;;;;;;4878956;29;19916;-68
2022/06/09 13:00:26;;;;;;;;;;;21.50;79.40;;;;;;4879933;29;19942;-63
2022/06/09 13:02:51;;;;;;;;;;;20.90;76.30;;;;;;4882719;29;19911;-57
2022/06/09 13:05:20;;;;;;;;;;;21.10;78.80;;;;;;4882555;29;19912;-56
2022/06/09 13:07:52;;;;;;;;;;;21.40;72.10;;;;;;4882872;29;19912;-57
2022/06/09 13:10:26;;;;;;;;;;;21.70;72.50;;;;;;4884871;29;19919;-62
2022/06/09 13:12:55;;;;;;;;;;;21.60;71.40;;;;;;4882276;29;20003;-56
2022/06/09 13:15:37;;;;;;;;;;;21.60;69.80;;;;;;4890838;29;19912;-61
2022/06/09 13:18:11;;;;;;;;;;;21.70;69.80;;;;;;4888313;29;20379;-60
2022/06/09 13:20:37;;;;;;;;;;;21.80;68.80;;;;;;4890513;29;20022;-57
2022/06/09 13:23:04;;;;;;;;;;;21.80;70.90;;;;;;4887071;29;19915;-65
2022/06/09 13:25:30;;;;;;;;;;;21.80;71.50;;;;;;4880601;29;19912;-56
2022/06/09 13:27:56;;;;;;;;;;;21.60;73.60;;;;;;4890627;29;19926;-59
2022/06/09 13:30:31;;;;;;;;;;;21.50;76.20;;;;;;4883502;29;20144;-58
2022/06/09 13:32:56;;;;;;;;;;;21.50;77.20;;;;;;4880877;29;19950;-60
2022/06/09 13:35:42;;;;;;;;;;;21.50;77.60;;;;;;4880674;29;19980;-61
2022/06/09 13:38:17;;;;;;;;;;;21.60;75.90;;;;;;4872125;29;19968;-61
2022/06/09 13:40:48;;;;;;;;;;;21.60;75.90;;;;;;4888963;29;19919;-57
2022/06/09 13:43:35;;;;;;;;;;;21.70;76.30;;;;;;4890149;29;19923;-56
2022/06/09 13:46:03;;;;;;;;;;;21.60;76.60;;;;;;4888229;29;19912;-70
2022/06/09 13:48:38;;;;;;;;;;;21.60;76.70;;;;;;4887372;29;19968;-63
2022/06/09 13:51:06;;;;;;;;;;;21.70;76.80;;;;;;4888368;29;19938;-62
2022/06/09 13:53:46;;;;;;;;;;;21.70;77.20;;;;;;4890994;29;20315;-65
2022/06/09 13:56:13;;;;;;;;;;;21.70;77.60;;;;;;4888256;29;20032;-60
2022/06/09 13:58:38;;;;;;;;;;;21.70;77.70;;;;;;4889549;29;19915;-61
2022/06/09 14:01:05;;;;;;;;;;;21.70;77.80;;;;;;4880124;29;19912;-58
2022/06/09 14:03:32;;;;;;;;;;;21.70;77.70;;;;;;4888105;29;19915;-61
2022/06/09 14:05:59;;;;;;;;;;;21.70;77.20;;;;;;4880392;29;19923;-60
2022/06/09 14:08:26;;;;;;;;;;;21.80;76.50;;;;;;4891323;29;20693;-62
2022/06/09 14:10:52;;;;;;;;;;;21.90;76.50;;;;;;4888687;29;19976;-63
2022/06/09 14:13:18;;;;;;;;;;;21.80;75.40;;;;;;4889207;29;19916;-61
2022/06/09 14:15:44;;;;;;;;;;;21.80;74.90;;;;;;4863774;29;20409;-65
2022/06/09 14:18:15;;;;;;;;;;;21.50;74.50;;;;;;4896325;29;19959;-63
2022/06/09 14:20:41;;;;;;;;;;;21.40;75.00;;;;;;4888361;29;19935;-59
2022/06/09 14:23:11;;;;;;;;;;;21.30;74.90;;;;;;4882250;29;20369;-63
2022/06/09 14:25:37;;;;;;;;;;;21.20;77.20;;;;;;4885158;29;20348;-64
2022/06/09 14:28:06;;;;;;;;;;;21.20;77.90;;;;;;4869539;29;19945;-58
2022/06/09 14:30:31;;;;;;;;;;;20.90;78.40;;;;;;4883099;29;20076;-62
2022/06/09 14:32:57;;;;;;;;;;;20.90;81.00;;;;;;4883420;29;19969;-59
2022/06/09 14:35:22;;;;;;;;;;;21.10;79.60;;;;;;4882466;29;19916;-63
2022/06/09 14:37:49;;;;;;;;;;;21.30;78.50;;;;;;4881709;29;20010;-60
2022/06/09 14:40:21;;;;;;;;;;;21.40;78.20;;;;;;4881103;29;19919;-62
2022/06/09 14:42:46;;;;;;;;;;;21.60;77.40;;;;;;4881259;29;20023;-60
2022/06/09 14:45:12;;;;;;;;;;;21.60;76.90;;;;;;4881865;29;19952;-58
2022/06/09 14:47:37;;;;;;;;;;;21.50;76.70;;;;;;4881485;29;19911;-61
2022/06/09 14:50:03;;;;;;;;;;;21.60;77.10;;;;;;4881012;29;19924;-59
2022/06/09 14:52:29;;;;;;;;;;;21.60;76.30;;;;;;4881225;29;19912;-59
2022/06/09 14:54:54;;;;;;;;;;;21.60;77.20;;;;;;4864262;29;19919;-57